Impacts TAF Board
For situational awareness. Not to be used for flight planning purposes.
IDs:

KAUS - Austin/Bergstrom Int, TX, US

Issued at 1120 UTC 09 Dec 2019
Updated at 1239 UTC 09 Dec 2019
Potential Impact None Slight Moderate High
Time1220Z 09/13Z 09/14Z 09/15Z 09/16Z 09/17Z 09/18Z 09/19Z 09/20Z 09/21Z 09/22Z 09/23Z 10/00Z 10/01Z>>
Type OBS PRVL PRVL PRVL PRVL PRVL PRVL PRVL PRVL PRVL PRVL PRVL PRVL PRVL
VIS 3 2 2 >6 >6 >6 >6 >6 >6 >6 >6 >6 >6 >6
CIG 3 4 4 25 25 250 250 250 250 250 250 250 250 250
Cover OVC OVC OVC BKN BKN BKN BKN BKN BKN BKN BKN BKN BKN BKN
FltCat LIFR LIFR LIFR MVFR MVFR VFR VFR VFR VFR VFR VFR VFR VFR VFR
WX -DZ BR BR BR -- -- -- -- -- -- -- -- -- -- --
WDir 230 200 200 210 210 190 190 190 190 190 190 190 70 70
WSpd 4 4 4 7 7 8 8 8 8 8 8 8 5 5
WGst -- -- -- -- -- -- -- -- -- -- -- -- -- --
R17/35
XWnd -3 -1 -1 -4 -4 -2 -2 -2 -2 -2 -2 -2 5 5
HWnd 3 4 4 6 6 8 8 8 8 8 8 8 -2 -2
Raw TAF
KAUS 091120Z 0912/1018 20004KT 2SM BR OVC004
  FM091500 21007KT P6SM BKN025
  FM091700 19008KT P6SM SCT025 BKN250
  FM100000 07005KT P6SM BKN250
  FM100300 36015G25KT P6SM VCSH BKN035


Raw METAR
KAUS 091220Z 23004KT 3SM -DZ BR OVC003 19/18 A2985 RMK AO2 P0000 T01890183 $
KAUS 091153Z 22005KT 2SM -DZ BR OVC003 19/18 A2984 RMK AO2 DZB33 SLP099 P0000 60000 T01890183 10189 20172 55001 $
KAUS 091053Z 20007KT 1 3/4SM BR OVC003 19/18 A2983 RMK AO2 SLP095 T01890178 $
KAUS 091031Z 22007KT 2 1/2SM BR OVC003 19/18 A2983 RMK AO2 T01890178 $
KAUS 090953Z 19007KT 5SM BR OVC004 19/18 A2983 RMK AO2 SLP095 T01890178 $
KAUS 090939Z 19010G17KT 5SM BR OVC004 19/18 A2984 RMK AO2 T01890178 $

METAR Board
Radar Display
Forecast Discussion
For situational awareness. Not to be used for flight planning purposes.